sensor_id;sensor_type;location;lat;lon;timestamp;pressure;altitude;pressure_sealevel;temperature;humidity
73501;BME280;61721;42.206;25.320;2023-02-14T00:01:24;101125.56;;;1.39;57.79
73501;BME280;61721;42.206;25.320;2023-02-14T00:03:52;101130.38;;;0.99;58.58
73501;BME280;61721;42.206;25.320;2023-02-14T00:06:19;101129.44;;;1.01;58.84
73501;BME280;61721;42.206;25.320;2023-02-14T00:08:46;101124.38;;;0.94;59.36
73501;BME280;61721;42.206;25.320;2023-02-14T00:11:13;101128.81;;;0.92;59.79
73501;BME280;61721;42.206;25.320;2023-02-14T00:13:40;101134.31;;;0.85;59.92
73501;BME280;61721;42.206;25.320;2023-02-14T00:16:30;101138.72;;;1.13;59.12
73501;BME280;61721;42.206;25.320;2023-02-14T00:18:56;101136.97;;;1.41;58.33
73501;BME280;61721;42.206;25.320;2023-02-14T00:21:29;101135.53;;;1.31;58.33
73501;BME280;61721;42.206;25.320;2023-02-14T00:23:57;101136.31;;;1.33;58.39
73501;BME280;61721;42.206;25.320;2023-02-14T00:26:24;101142.97;;;1.45;58.01
73501;BME280;61721;42.206;25.320;2023-02-14T00:28:51;101141.22;;;1.45;57.94
73501;BME280;61721;42.206;25.320;2023-02-14T00:31:18;101146.47;;;1.17;59.18
73501;BME280;61721;42.206;25.320;2023-02-14T00:33:47;101140.19;;;1.49;58.44
73501;BME280;61721;42.206;25.320;2023-02-14T00:36:14;101148.41;;;1.12;59.06
73501;BME280;61721;42.206;25.320;2023-02-14T00:38:43;101140.41;;;1.69;57.72
73501;BME280;61721;42.206;25.320;2023-02-14T00:41:10;101142.94;;;1.46;58.92
73501;BME280;61721;42.206;25.320;2023-02-14T00:43:44;101136.16;;;1.65;57.92
73501;BME280;61721;42.206;25.320;2023-02-14T00:46:12;101134.81;;;1.79;57.96
73501;BME280;61721;42.206;25.320;2023-02-14T00:48:39;101132.88;;;1.84;58.39
73501;BME280;61721;42.206;25.320;2023-02-14T00:51:08;101135.09;;;1.71;58.85
73501;BME280;61721;42.206;25.320;2023-02-14T00:53:35;101143.78;;;1.99;58.03
73501;BME280;61721;42.206;25.320;2023-02-14T00:56:03;101141.94;;;1.77;58.90
73501;BME280;61721;42.206;25.320;2023-02-14T00:58:31;101135.97;;;2.21;58.05
73501;BME280;61721;42.206;25.320;2023-02-14T01:00:58;101126.22;;;2.23;57.75
73501;BME280;61721;42.206;25.320;2023-02-14T01:03:26;101130.72;;;2.44;57.74
73501;BME280;61721;42.206;25.320;2023-02-14T01:05:53;101125.03;;;2.07;58.34
73501;BME280;61721;42.206;25.320;2023-02-14T01:08:24;101125.13;;;2.53;58.13
73501;BME280;61721;42.206;25.320;2023-02-14T01:10:51;101123.09;;;2.12;58.88
73501;BME280;61721;42.206;25.320;2023-02-14T01:13:19;101114.72;;;2.24;58.34
73501;BME280;61721;42.206;25.320;2023-02-14T01:15:47;101108.50;;;2.02;59.28
73501;BME280;61721;42.206;25.320;2023-02-14T01:18:15;101102.13;;;2.55;57.66
73501;BME280;61721;42.206;25.320;2023-02-14T01:20:43;101105.16;;;2.22;58.67
73501;BME280;61721;42.206;25.320;2023-02-14T01:23:11;101102.31;;;2.03;59.60
73501;BME280;61721;42.206;25.320;2023-02-14T01:25:39;101105.75;;;2.05;59.59
73501;BME280;61721;42.206;25.320;2023-02-14T01:28:06;101102.94;;;1.85;59.80
73501;BME280;61721;42.206;25.320;2023-02-14T01:30:33;101094.22;;;2.07;59.75
73501;BME280;61721;42.206;25.320;2023-02-14T01:33:01;101083.00;;;2.01;59.67
73501;BME280;61721;42.206;25.320;2023-02-14T01:35:28;101080.16;;;2.07;59.76
73501;BME280;61721;42.206;25.320;2023-02-14T01:37:56;101086.38;;;2.29;59.04
73501;BME280;61721;42.206;25.320;2023-02-14T01:40:23;101075.06;;;2.02;59.93
73501;BME280;61721;42.206;25.320;2023-02-14T01:42:51;101063.94;;;2.86;58.13
73501;BME280;61721;42.206;25.320;2023-02-14T01:45:19;101064.97;;;2.37;58.64
73501;BME280;61721;42.206;25.320;2023-02-14T01:47:52;101067.19;;;2.01;59.56
73501;BME280;61721;42.206;25.320;2023-02-14T01:50:24;101074.81;;;1.84;59.97
73501;BME280;61721;42.206;25.320;2023-02-14T01:52:55;101072.72;;;2.41;58.79
73501;BME280;61721;42.206;25.320;2023-02-14T01:55:25;101078.75;;;1.97;59.79
73501;BME280;61721;42.206;25.320;2023-02-14T01:57:57;101069.31;;;1.90;59.86
73501;BME280;61721;42.206;25.320;2023-02-14T02:00:25;101066.72;;;1.63;60.24
73501;BME280;61721;42.206;25.320;2023-02-14T02:03:10;101060.97;;;1.26;60.89
73501;BME280;61721;42.206;25.320;2023-02-14T02:05:41;101059.50;;;1.68;60.69
73501;BME280;61721;42.206;25.320;2023-02-14T02:08:10;101065.44;;;1.50;60.93
73501;BME280;61721;42.206;25.320;2023-02-14T02:10:40;101057.03;;;1.89;59.98
73501;BME280;61721;42.206;25.320;2023-02-14T02:13:14;101054.50;;;1.36;61.15
73501;BME280;61721;42.206;25.320;2023-02-14T02:15:50;101054.03;;;1.75;59.68
73501;BME280;61721;42.206;25.320;2023-02-14T02:18:27;101049.47;;;1.53;61.10
73501;BME280;61721;42.206;25.320;2023-02-14T02:24:06;101064.22;;;1.34;61.55
73501;BME280;61721;42.206;25.320;2023-02-14T02:38:41;101034.78;;;0.94;61.64
73501;BME280;61721;42.206;25.320;2023-02-14T02:41:19;101044.97;;;0.76;61.93
73501;BME280;61721;42.206;25.320;2023-02-14T02:43:54;101048.56;;;1.02;60.66
73501;BME280;61721;42.206;25.320;2023-02-14T02:46:27;101044.91;;;0.79;60.45
73501;BME280;61721;42.206;25.320;2023-02-14T02:49:20;101039.28;;;0.33;62.54
73501;BME280;61721;42.206;25.320;2023-02-14T02:52:06;101030.25;;;0.41;61.96
73501;BME280;61721;42.206;25.320;2023-02-14T02:54:57;101024.59;;;0.55;62.10
73501;BME280;61721;42.206;25.320;2023-02-14T02:57:31;101019.75;;;0.69;61.73
73501;BME280;61721;42.206;25.320;2023-02-14T03:00:02;101025.31;;;0.31;62.94
73501;BME280;61721;42.206;25.320;2023-02-14T03:02:33;101031.19;;;0.68;61.95
73501;BME280;61721;42.206;25.320;2023-02-14T03:05:22;101029.16;;;0.76;61.67
73501;BME280;61721;42.206;25.320;2023-02-14T03:07:50;101035.84;;;0.60;61.94
73501;BME280;61721;42.206;25.320;2023-02-14T03:10:18;101032.94;;;0.69;61.52
73501;BME280;61721;42.206;25.320;2023-02-14T03:13:36;101020.09;;;0.29;63.03
73501;BME280;61721;42.206;25.320;2023-02-14T03:16:26;101015.06;;;0.22;63.01
73501;BME280;61721;42.206;25.320;2023-02-14T03:22:07;101014.09;;;1.08;61.57
73501;BME280;61721;42.206;25.320;2023-02-14T03:24:46;101009.41;;;0.91;61.66
73501;BME280;61721;42.206;25.320;2023-02-14T03:27:21;100996.72;;;0.76;62.37
73501;BME280;61721;42.206;25.320;2023-02-14T03:29:56;101007.34;;;1.01;61.76
73501;BME280;61721;42.206;25.320;2023-02-14T03:32:31;101007.59;;;0.92;61.46
73501;BME280;61721;42.206;25.320;2023-02-14T03:35:08;101002.63;;;0.82;62.38
73501;BME280;61721;42.206;25.320;2023-02-14T03:37:40;101010.47;;;0.85;62.64
73501;BME280;61721;42.206;25.320;2023-02-14T03:40:17;101014.75;;;1.16;61.36
73501;BME280;61721;42.206;25.320;2023-02-14T03:42:50;101014.97;;;1.08;61.75
73501;BME280;61721;42.206;25.320;2023-02-14T03:45:22;101016.28;;;0.95;61.80
73501;BME280;61721;42.206;25.320;2023-02-14T03:47:53;101013.88;;;1.66;60.31
73501;BME280;61721;42.206;25.320;2023-02-14T03:50:24;101011.25;;;1.40;60.85
73501;BME280;61721;42.206;25.320;2023-02-14T03:52:55;101003.88;;;0.99;62.43
73501;BME280;61721;42.206;25.320;2023-02-14T03:55:33;100999.44;;;1.01;61.96
73501;BME280;61721;42.206;25.320;2023-02-14T03:58:07;100987.50;;;1.90;59.35
73501;BME280;61721;42.206;25.320;2023-02-14T04:00:37;100990.44;;;0.80;62.37
73501;BME280;61721;42.206;25.320;2023-02-14T04:03:09;100988.03;;;1.51;61.39
73501;BME280;61721;42.206;25.320;2023-02-14T04:05:38;100980.22;;;1.22;62.50
73501;BME280;61721;42.206;25.320;2023-02-14T04:08:08;100980.16;;;0.99;62.86
73501;BME280;61721;42.206;25.320;2023-02-14T04:10:38;100983.56;;;1.27;62.93
73501;BME280;61721;42.206;25.320;2023-02-14T04:13:07;100982.69;;;1.02;63.02
73501;BME280;61721;42.206;25.320;2023-02-14T04:15:35;100985.19;;;1.06;63.27
73501;BME280;61721;42.206;25.320;2023-02-14T04:18:02;100974.88;;;1.25;61.94
73501;BME280;61721;42.206;25.320;2023-02-14T04:20:47;100973.94;;;1.01;62.96
73501;BME280;61721;42.206;25.320;2023-02-14T04:23:14;100980.19;;;0.97;62.40
73501;BME280;61721;42.206;25.320;2023-02-14T04:25:42;100966.41;;;1.15;63.25
73501;BME280;61721;42.206;25.320;2023-02-14T04:28:10;100962.91;;;1.15;62.47
73501;BME280;61721;42.206;25.320;2023-02-14T04:30:37;100959.75;;;1.30;62.53
73501;BME280;61721;42.206;25.320;2023-02-14T04:33:04;100962.88;;;1.41;62.56
73501;BME280;61721;42.206;25.320;2023-02-14T04:35:32;100958.44;;;1.17;62.93
73501;BME280;61721;42.206;25.320;2023-02-14T04:38:00;100952.25;;;0.92;63.71
73501;BME280;61721;42.206;25.320;2023-02-14T04:40:27;100953.28;;;0.88;63.82
73501;BME280;61721;42.206;25.320;2023-02-14T04:42:56;100952.38;;;1.15;63.32
73501;BME280;61721;42.206;25.320;2023-02-14T04:45:25;100952.78;;;1.03;64.00
73501;BME280;61721;42.206;25.320;2023-02-14T04:47:52;100949.47;;;1.22;63.28
73501;BME280;61721;42.206;25.320;2023-02-14T04:50:20;100948.00;;;0.88;64.34
73501;BME280;61721;42.206;25.320;2023-02-14T04:52:50;100925.47;;;1.05;63.93
73501;BME280;61721;42.206;25.320;2023-02-14T04:55:18;100931.31;;;0.89;64.25
73501;BME280;61721;42.206;25.320;2023-02-14T04:57:45;100929.50;;;0.91;64.23
73501;BME280;61721;42.206;25.320;2023-02-14T05:00:15;100929.50;;;1.40;64.23
73501;BME280;61721;42.206;25.320;2023-02-14T05:02:42;100932.28;;;1.37;62.77
73501;BME280;61721;42.206;25.320;2023-02-14T05:05:09;100923.50;;;0.85;64.52
73501;BME280;61721;42.206;25.320;2023-02-14T05:07:36;100924.91;;;1.70;62.66
73501;BME280;61721;42.206;25.320;2023-02-14T05:10:04;100928.25;;;1.01;63.68
73501;BME280;61721;42.206;25.320;2023-02-14T05:12:31;100921.44;;;0.13;65.78
73501;BME280;61721;42.206;25.320;2023-02-14T05:14:59;100925.44;;;-0.03;66.16
73501;BME280;61721;42.206;25.320;2023-02-14T05:17:27;100933.19;;;-0.28;66.48
73501;BME280;61721;42.206;25.320;2023-02-14T05:19:54;100937.38;;;-0.21;66.62
73501;BME280;61721;42.206;25.320;2023-02-14T05:22:22;100938.22;;;0.38;65.56
73501;BME280;61721;42.206;25.320;2023-02-14T05:24:49;100942.94;;;0.81;63.37
73501;BME280;61721;42.206;25.320;2023-02-14T05:27:16;100942.31;;;1.51;60.89
73501;BME280;61721;42.206;25.320;2023-02-14T05:29:43;100935.06;;;1.57;60.27
73501;BME280;61721;42.206;25.320;2023-02-14T05:32:11;100938.50;;;1.35;60.54
73501;BME280;61721;42.206;25.320;2023-02-14T05:34:39;100931.16;;;0.39;62.83
73501;BME280;61721;42.206;25.320;2023-02-14T05:37:07;100924.28;;;0.06;64.10
73501;BME280;61721;42.206;25.320;2023-02-14T05:39:34;100934.66;;;0.39;63.86
73501;BME280;61721;42.206;25.320;2023-02-14T05:42:01;100942.56;;;0.94;62.10
73501;BME280;61721;42.206;25.320;2023-02-14T05:44:28;100931.03;;;1.70;59.79
73501;BME280;61721;42.206;25.320;2023-02-14T05:46:55;100937.94;;;1.50;60.05
73501;BME280;61721;42.206;25.320;2023-02-14T05:49:22;100932.00;;;1.68;59.37
73501;BME280;61721;42.206;25.320;2023-02-14T05:51:52;100923.38;;;1.88;58.63
73501;BME280;61721;42.206;25.320;2023-02-14T05:54:20;100925.34;;;1.58;59.10
73501;BME280;61721;42.206;25.320;2023-02-14T05:56:47;100920.88;;;2.06;58.04
73501;BME280;61721;42.206;25.320;2023-02-14T05:59:14;100932.03;;;1.43;59.68
73501;BME280;61721;42.206;25.320;2023-02-14T06:01:41;100916.28;;;1.65;58.94
73501;BME280;61721;42.206;25.320;2023-02-14T06:04:08;100927.84;;;1.62;59.34
73501;BME280;61721;42.206;25.320;2023-02-14T06:06:35;100927.13;;;0.81;60.73
73501;BME280;61721;42.206;25.320;2023-02-14T06:09:04;100924.69;;;1.02;60.32
73501;BME280;61721;42.206;25.320;2023-02-14T06:11:31;100930.75;;;1.30;59.96
73501;BME280;61721;42.206;25.320;2023-02-14T06:13:58;100936.63;;;1.12;60.67
73501;BME280;61721;42.206;25.320;2023-02-14T06:16:25;100927.69;;;1.42;59.52
73501;BME280;61721;42.206;25.320;2023-02-14T06:18:53;100919.53;;;1.48;59.27
73501;BME280;61721;42.206;25.320;2023-02-14T06:21:20;100909.91;;;1.94;58.48
73501;BME280;61721;42.206;25.320;2023-02-14T06:23:47;100916.56;;;2.04;57.74
73501;BME280;61721;42.206;25.320;2023-02-14T06:26:15;100909.00;;;2.18;57.67
73501;BME280;61721;42.206;25.320;2023-02-14T06:28:43;100902.47;;;1.82;59.23
73501;BME280;61721;42.206;25.320;2023-02-14T06:31:14;100899.59;;;1.64;59.65
73501;BME280;61721;42.206;25.320;2023-02-14T06:33:42;100898.44;;;1.48;60.62
73501;BME280;61721;42.206;25.320;2023-02-14T06:36:10;100903.50;;;2.01;60.46
73501;BME280;61721;42.206;25.320;2023-02-14T06:38:37;100911.06;;;1.40;62.19
73501;BME280;61721;42.206;25.320;2023-02-14T06:41:07;100912.41;;;2.43;59.48
73501;BME280;61721;42.206;25.320;2023-02-14T06:43:36;100910.72;;;2.41;59.48
73501;BME280;61721;42.206;25.320;2023-02-14T06:46:03;100905.09;;;3.32;57.61
73501;BME280;61721;42.206;25.320;2023-02-14T06:48:31;100911.56;;;4.03;55.81
73501;BME280;61721;42.206;25.320;2023-02-14T06:50:58;100909.63;;;4.44;54.54
73501;BME280;61721;42.206;25.320;2023-02-14T06:53:25;100909.56;;;4.63;54.45
73501;BME280;61721;42.206;25.320;2023-02-14T06:55:53;100919.53;;;4.94;53.77
73501;BME280;61721;42.206;25.320;2023-02-14T06:58:20;100906.00;;;5.50;53.01
73501;BME280;61721;42.206;25.320;2023-02-14T07:00:56;100908.97;;;5.61;52.80
73501;BME280;61721;42.206;25.320;2023-02-14T07:03:27;100907.63;;;6.03;51.57
73501;BME280;61721;42.206;25.320;2023-02-14T07:05:58;100896.63;;;6.71;51.29
73501;BME280;61721;42.206;25.320;2023-02-14T07:08:25;100905.06;;;6.48;51.45
73501;BME280;61721;42.206;25.320;2023-02-14T07:10:54;100908.06;;;6.42;51.75
73501;BME280;61721;42.206;25.320;2023-02-14T07:13:22;100901.28;;;6.21;51.62
73501;BME280;61721;42.206;25.320;2023-02-14T07:15:49;100893.88;;;6.73;51.24
73501;BME280;61721;42.206;25.320;2023-02-14T07:18:18;100889.63;;;6.55;50.67
73501;BME280;61721;42.206;25.320;2023-02-14T07:20:45;100898.59;;;6.83;50.20
73501;BME280;61721;42.206;25.320;2023-02-14T07:23:12;100902.03;;;6.85;50.31
73501;BME280;61721;42.206;25.320;2023-02-14T07:25:39;100899.06;;;6.60;49.86
73501;BME280;61721;42.206;25.320;2023-02-14T07:28:06;100895.38;;;6.93;50.04
73501;BME280;61721;42.206;25.320;2023-02-14T07:30:34;100897.09;;;7.38;49.02
73501;BME280;61721;42.206;25.320;2023-02-14T07:33:01;100898.66;;;6.82;49.03
73501;BME280;61721;42.206;25.320;2023-02-14T07:35:30;100894.78;;;6.42;50.80
73501;BME280;61721;42.206;25.320;2023-02-14T07:37:57;100897.34;;;6.59;50.52
73501;BME280;61721;42.206;25.320;2023-02-14T07:40:24;100894.88;;;7.60;49.27
73501;BME280;61721;42.206;25.320;2023-02-14T07:42:53;100887.00;;;6.84;50.17
73501;BME280;61721;42.206;25.320;2023-02-14T07:45:21;100885.91;;;7.47;49.10
73501;BME280;61721;42.206;25.320;2023-02-14T07:47:52;100886.91;;;7.16;49.39
73501;BME280;61721;42.206;25.320;2023-02-14T07:50:21;100883.56;;;7.70;48.69
73501;BME280;61721;42.206;25.320;2023-02-14T07:52:50;100882.34;;;7.32;48.94
73501;BME280;61721;42.206;25.320;2023-02-14T07:55:17;100867.72;;;7.39;48.92
73501;BME280;61721;42.206;25.320;2023-02-14T07:57:47;100879.31;;;8.37;47.46
73501;BME280;61721;42.206;25.320;2023-02-14T08:00:15;100884.50;;;6.81;49.60
73501;BME280;61721;42.206;25.320;2023-02-14T08:02:42;100886.59;;;7.50;49.12
73501;BME280;61721;42.206;25.320;2023-02-14T08:05:09;100886.88;;;7.74;47.60
73501;BME280;61721;42.206;25.320;2023-02-14T08:07:38;100896.28;;;7.51;48.31
73501;BME280;61721;42.206;25.320;2023-02-14T08:10:07;100898.19;;;7.63;48.51
73501;BME280;61721;42.206;25.320;2023-02-14T08:12:34;100906.19;;;8.06;47.17
73501;BME280;61721;42.206;25.320;2023-02-14T08:15:18;100920.41;;;7.92;48.46
73501;BME280;61721;42.206;25.320;2023-02-14T08:18:02;100921.81;;;8.12;47.50
73501;BME280;61721;42.206;25.320;2023-02-14T08:20:30;100920.78;;;7.42;49.34
73501;BME280;61721;42.206;25.320;2023-02-14T08:22:57;100908.28;;;8.15;47.92
73501;BME280;61721;42.206;25.320;2023-02-14T08:25:26;100920.94;;;8.11;47.36
73501;BME280;61721;42.206;25.320;2023-02-14T08:27:53;100924.84;;;9.15;46.54
73501;BME280;61721;42.206;25.320;2023-02-14T08:30:22;100913.41;;;9.65;44.90
73501;BME280;61721;42.206;25.320;2023-02-14T08:32:49;100914.69;;;9.59;44.94
73501;BME280;61721;42.206;25.320;2023-02-14T08:35:16;100915.09;;;9.01;45.60
73501;BME280;61721;42.206;25.320;2023-02-14T08:37:44;100915.50;;;8.95;45.63
73501;BME280;61721;42.206;25.320;2023-02-14T08:40:11;100898.81;;;9.81;44.05
73501;BME280;61721;42.206;25.320;2023-02-14T08:42:40;100895.41;;;9.67;44.11
73501;BME280;61721;42.206;25.320;2023-02-14T08:45:08;100891.75;;;10.18;41.95
73501;BME280;61721;42.206;25.320;2023-02-14T08:47:51;100887.59;;;10.51;42.54
73501;BME280;61721;42.206;25.320;2023-02-14T08:50:25;100891.09;;;10.99;40.68
73501;BME280;61721;42.206;25.320;2023-02-14T08:52:53;100886.13;;;9.85;42.87
73501;BME280;61721;42.206;25.320;2023-02-14T08:55:20;100894.88;;;10.72;41.52
73501;BME280;61721;42.206;25.320;2023-02-14T08:57:49;100894.66;;;12.03;38.97
73501;BME280;61721;42.206;25.320;2023-02-14T09:00:21;100881.72;;;12.19;38.13
73501;BME280;61721;42.206;25.320;2023-02-14T09:02:53;100885.94;;;11.20;39.50
73501;BME280;61721;42.206;25.320;2023-02-14T09:05:20;100886.69;;;11.22;39.00
73501;BME280;61721;42.206;25.320;2023-02-14T09:07:48;100883.50;;;11.63;37.71
73501;BME280;61721;42.206;25.320;2023-02-14T09:10:15;100873.91;;;11.82;37.64
73501;BME280;61721;42.206;25.320;2023-02-14T09:12:43;100877.28;;;10.57;39.51
73501;BME280;61721;42.206;25.320;2023-02-14T09:15:12;100879.66;;;12.65;36.03
73501;BME280;61721;42.206;25.320;2023-02-14T09:17:39;100883.38;;;11.07;38.19
73501;BME280;61721;42.206;25.320;2023-02-14T09:20:09;100878.50;;;12.36;36.27
73501;BME280;61721;42.206;25.320;2023-02-14T09:22:39;100875.50;;;12.72;35.30
73501;BME280;61721;42.206;25.320;2023-02-14T09:25:06;100879.66;;;11.32;36.83
73501;BME280;61721;42.206;25.320;2023-02-14T09:27:36;100876.13;;;11.77;36.12
73501;BME280;61721;42.206;25.320;2023-02-14T09:30:04;100869.94;;;14.19;32.51
73501;BME280;61721;42.206;25.320;2023-02-14T09:32:33;100860.16;;;15.16;31.06
73501;BME280;61721;42.206;25.320;2023-02-14T09:35:00;100863.31;;;13.62;33.83
73501;BME280;61721;42.206;25.320;2023-02-14T09:37:34;100862.94;;;13.77;32.82
73501;BME280;61721;42.206;25.320;2023-02-14T09:40:02;100860.59;;;14.23;31.46
73501;BME280;61721;42.206;25.320;2023-02-14T09:42:40;100863.34;;;12.89;32.19
73501;BME280;61721;42.206;25.320;2023-02-14T09:45:13;100863.00;;;13.14;32.27
73501;BME280;61721;42.206;25.320;2023-02-14T09:47:45;100856.59;;;15.34;29.81
73501;BME280;61721;42.206;25.320;2023-02-14T09:50:18;100863.84;;;15.44;29.12
73501;BME280;61721;42.206;25.320;2023-02-14T09:52:50;100853.50;;;14.72;29.41
73501;BME280;61721;42.206;25.320;2023-02-14T09:55:38;100844.03;;;15.72;28.31
73501;BME280;61721;42.206;25.320;2023-02-14T09:58:13;100848.47;;;16.27;27.48
73501;BME280;61721;42.206;25.320;2023-02-14T10:00:45;100836.88;;;16.17;26.83
73501;BME280;61721;42.206;25.320;2023-02-14T10:03:45;100837.25;;;15.39;27.90
73501;BME280;61721;42.206;25.320;2023-02-14T10:06:25;100828.13;;;16.51;25.76
73501;BME280;61721;42.206;25.320;2023-02-14T10:09:01;100815.75;;;17.63;25.17
73501;BME280;61721;42.206;25.320;2023-02-14T10:11:33;100812.84;;;17.82;24.54
73501;BME280;61721;42.206;25.320;2023-02-14T10:14:05;100818.00;;;16.80;24.88
73501;BME280;61721;42.206;25.320;2023-02-14T10:16:39;100812.28;;;17.52;24.37
73501;BME280;61721;42.206;25.320;2023-02-14T10:19:16;100800.34;;;17.89;23.59
73501;BME280;61721;42.206;25.320;2023-02-14T10:21:49;100787.00;;;17.36;24.20
73501;BME280;61721;42.206;25.320;2023-02-14T10:24:22;100787.13;;;18.36;22.71
73501;BME280;61721;42.206;25.320;2023-02-14T10:26:55;100781.28;;;17.73;24.26
73501;BME280;61721;42.206;25.320;2023-02-14T10:29:27;100783.84;;;18.99;22.62
73501;BME280;61721;42.206;25.320;2023-02-14T10:31:57;100766.84;;;19.53;22.09
73501;BME280;61721;42.206;25.320;2023-02-14T10:34:32;100768.00;;;18.46;22.96
73501;BME280;61721;42.206;25.320;2023-02-14T10:37:14;100768.59;;;18.73;21.81
73501;BME280;61721;42.206;25.320;2023-02-14T10:40:11;100750.28;;;18.92;21.99
73501;BME280;61721;42.206;25.320;2023-02-14T10:42:49;100746.50;;;19.17;22.14
73501;BME280;61721;42.206;25.320;2023-02-14T10:45:25;100743.50;;;19.04;22.41
73501;BME280;61721;42.206;25.320;2023-02-14T10:48:04;100735.09;;;19.54;21.78
73501;BME280;61721;42.206;25.320;2023-02-14T10:50:46;100731.25;;;19.16;22.22
73501;BME280;61721;42.206;25.320;2023-02-14T10:53:20;100729.50;;;20.25;21.33
73501;BME280;61721;42.206;25.320;2023-02-14T10:55:53;100725.66;;;20.65;20.86
73501;BME280;61721;42.206;25.320;2023-02-14T10:58:26;100717.41;;;20.96;20.77
73501;BME280;61721;42.206;25.320;2023-02-14T11:00:58;100724.19;;;20.01;21.60
73501;BME280;61721;42.206;25.320;2023-02-14T11:03:27;100729.63;;;16.63;24.69
73501;BME280;61721;42.206;25.320;2023-02-14T11:05:56;100730.69;;;19.92;21.31
73501;BME280;61721;42.206;25.320;2023-02-14T11:08:26;100725.47;;;19.27;21.55
73501;BME280;61721;42.206;25.320;2023-02-14T11:10:56;100719.59;;;19.62;22.21
73501;BME280;61721;42.206;25.320;2023-02-14T11:13:28;100709.31;;;21.55;19.66
73501;BME280;61721;42.206;25.320;2023-02-14T11:15:58;100707.59;;;19.96;20.72
73501;BME280;61721;42.206;25.320;2023-02-14T11:18:27;100714.56;;;19.90;20.73
73501;BME280;61721;42.206;25.320;2023-02-14T11:21:06;100717.28;;;18.14;23.15
73501;BME280;61721;42.206;25.320;2023-02-14T11:23:36;100698.00;;;20.62;21.04
73501;BME280;61721;42.206;25.320;2023-02-14T11:26:07;100696.25;;;20.98;20.17
73501;BME280;61721;42.206;25.320;2023-02-14T11:28:36;100689.66;;;21.15;19.90
73501;BME280;61721;42.206;25.320;2023-02-14T11:31:10;100692.09;;;21.69;19.82
73501;BME280;61721;42.206;25.320;2023-02-14T11:33:39;100697.00;;;20.77;20.59
73501;BME280;61721;42.206;25.320;2023-02-14T11:36:10;100695.19;;;21.66;19.79
73501;BME280;61721;42.206;25.320;2023-02-14T11:38:39;100688.25;;;20.44;20.90
73501;BME280;61721;42.206;25.320;2023-02-14T11:41:09;100676.19;;;22.02;19.17
73501;BME280;61721;42.206;25.320;2023-02-14T11:43:38;100668.47;;;21.25;19.45
73501;BME280;61721;42.206;25.320;2023-02-14T11:46:11;100665.47;;;22.00;19.75
73501;BME280;61721;42.206;25.320;2023-02-14T11:48:56;100675.19;;;21.59;19.28
73501;BME280;61721;42.206;25.320;2023-02-14T11:51:32;100656.16;;;21.29;19.42
73501;BME280;61721;42.206;25.320;2023-02-14T11:54:02;100656.91;;;22.46;18.27
73501;BME280;61721;42.206;25.320;2023-02-14T11:56:48;100653.09;;;21.83;18.45
73501;BME280;61721;42.206;25.320;2023-02-14T11:59:25;100644.50;;;22.65;17.99
73501;BME280;61721;42.206;25.320;2023-02-14T12:01:54;100642.63;;;20.55;19.97
73501;BME280;61721;42.206;25.320;2023-02-14T12:04:23;100645.13;;;23.16;18.20
73501;BME280;61721;42.206;25.320;2023-02-14T12:07:11;100651.06;;;22.06;19.07
73501;BME280;61721;42.206;25.320;2023-02-14T12:09:39;100644.97;;;22.47;18.99
73501;BME280;61721;42.206;25.320;2023-02-14T12:12:16;100643.25;;;23.23;17.76
73501;BME280;61721;42.206;25.320;2023-02-14T12:14:44;100643.25;;;19.57;20.51
73501;BME280;61721;42.206;25.320;2023-02-14T12:17:19;100631.31;;;21.54;19.46
73501;BME280;61721;42.206;25.320;2023-02-14T12:19:50;100613.63;;;22.85;18.29
73501;BME280;61721;42.206;25.320;2023-02-14T12:22:21;100614.00;;;21.76;18.99
73501;BME280;61721;42.206;25.320;2023-02-14T12:24:58;100619.88;;;22.79;19.19
73501;BME280;61721;42.206;25.320;2023-02-14T12:27:31;100618.50;;;22.20;18.96
73501;BME280;61721;42.206;25.320;2023-02-14T12:30:09;100618.06;;;22.65;18.49
73501;BME280;61721;42.206;25.320;2023-02-14T12:32:45;100610.31;;;22.96;18.19
73501;BME280;61721;42.206;25.320;2023-02-14T12:35:15;100613.06;;;21.18;20.42
73501;BME280;61721;42.206;25.320;2023-02-14T12:37:57;100617.06;;;22.24;18.46
73501;BME280;61721;42.206;25.320;2023-02-14T12:40:34;100605.69;;;22.69;18.72
73501;BME280;61721;42.206;25.320;2023-02-14T12:43:25;100604.31;;;19.96;21.25
73501;BME280;61721;42.206;25.320;2023-02-14T12:46:05;100600.88;;;23.87;18.09
73501;BME280;61721;42.206;25.320;2023-02-14T12:48:46;100605.41;;;20.32;20.32
73501;BME280;61721;42.206;25.320;2023-02-14T12:51:19;100605.38;;;22.57;19.06
73501;BME280;61721;42.206;25.320;2023-02-14T12:54:00;100610.88;;;21.28;20.18
73501;BME280;61721;42.206;25.320;2023-02-14T12:56:41;100599.56;;;22.88;19.14
73501;BME280;61721;42.206;25.320;2023-02-14T12:59:19;100603.56;;;20.85;21.41
73501;BME280;61721;42.206;25.320;2023-02-14T13:04:58;100609.63;;;20.12;21.21
73501;BME280;61721;42.206;25.320;2023-02-14T13:07:48;100600.44;;;20.88;20.16
73501;BME280;61721;42.206;25.320;2023-02-14T13:10:39;100598.00;;;20.93;20.42
73501;BME280;61721;42.206;25.320;2023-02-14T13:13:16;100590.00;;;21.86;19.53
73501;BME280;61721;42.206;25.320;2023-02-14T13:15:51;100597.19;;;19.33;21.85
73501;BME280;61721;42.206;25.320;2023-02-14T13:18:33;100597.53;;;19.69;21.79
73501;BME280;61721;42.206;25.320;2023-02-14T13:21:07;100590.06;;;21.21;19.27
73501;BME280;61721;42.206;25.320;2023-02-14T13:23:38;100595.94;;;19.52;20.92
73501;BME280;61721;42.206;25.320;2023-02-14T13:26:11;100582.28;;;22.81;18.20
73501;BME280;61721;42.206;25.320;2023-02-14T13:28:46;100587.97;;;23.55;18.08